sensor_id;sensor_type;location;lat;lon;timestamp;pressure;altitude;pressure_sealevel;temperature;humidity
18500;BME280;9379;52.134;11.576;2022-12-11T00:00:25;100541.59;;;2.70;75.20
18500;BME280;9379;52.134;11.576;2022-12-11T00:02:53;100544.13;;;2.72;74.63
18500;BME280;9379;52.134;11.576;2022-12-11T00:05:25;100513.63;;;2.39;74.35
18500;BME280;9379;52.134;11.576;2022-12-11T00:07:53;100525.13;;;2.21;74.92
18500;BME280;9379;52.134;11.576;2022-12-11T00:10:22;100532.88;;;2.54;73.89
18500;BME280;9379;52.134;11.576;2022-12-11T00:12:50;100541.25;;;2.76;73.83
18500;BME280;9379;52.134;11.576;2022-12-11T00:15:25;100501.44;;;2.38;73.55
18500;BME280;9379;52.134;11.576;2022-12-11T00:18:00;100524.09;;;2.71;75.24
18500;BME280;9379;52.134;11.576;2022-12-11T00:20:29;100543.78;;;2.93;74.41
18500;BME280;9379;52.134;11.576;2022-12-11T00:22:56;100535.53;;;2.70;73.91
18500;BME280;9379;52.134;11.576;2022-12-11T00:25:23;100540.00;;;2.68;74.00
18500;BME280;9379;52.134;11.576;2022-12-11T00:27:50;100536.94;;;2.75;73.64
18500;BME280;9379;52.134;11.576;2022-12-11T00:30:20;100535.22;;;2.90;73.23
18500;BME280;9379;52.134;11.576;2022-12-11T00:32:47;100535.00;;;2.63;73.80
18500;BME280;9379;52.134;11.576;2022-12-11T00:35:15;100534.66;;;2.53;73.77
18500;BME280;9379;52.134;11.576;2022-12-11T00:37:44;100540.44;;;2.60;73.58
18500;BME280;9379;52.134;11.576;2022-12-11T00:40:11;100536.88;;;2.29;74.69
18500;BME280;9379;52.134;11.576;2022-12-11T00:42:37;100539.75;;;2.72;73.89
18500;BME280;9379;52.134;11.576;2022-12-11T00:45:05;100527.94;;;2.95;73.57
18500;BME280;9379;52.134;11.576;2022-12-11T00:47:32;100535.81;;;2.95;72.72
18500;BME280;9379;52.134;11.576;2022-12-11T00:49:59;100527.72;;;2.52;74.80
18500;BME280;9379;52.134;11.576;2022-12-11T00:52:27;100530.66;;;1.83;75.07
18500;BME280;9379;52.134;11.576;2022-12-11T00:54:55;100539.09;;;2.21;74.82
18500;BME280;9379;52.134;11.576;2022-12-11T00:57:22;100542.97;;;2.46;75.10
18500;BME280;9379;52.134;11.576;2022-12-11T00:59:49;100520.97;;;2.01;76.03
18500;BME280;9379;52.134;11.576;2022-12-11T01:05:39;100540.53;;;2.11;77.44
18500;BME280;9379;52.134;11.576;2022-12-11T01:08:06;100547.63;;;2.56;75.63
18500;BME280;9379;52.134;11.576;2022-12-11T01:10:34;100549.91;;;2.62;75.60
18500;BME280;9379;52.134;11.576;2022-12-11T01:13:02;100552.19;;;2.69;75.35
18500;BME280;9379;52.134;11.576;2022-12-11T01:15:32;100548.13;;;2.31;76.92
18500;BME280;9379;52.134;11.576;2022-12-11T01:17:59;100554.06;;;2.35;75.57
18500;BME280;9379;52.134;11.576;2022-12-11T01:20:26;100553.97;;;2.37;76.00
18500;BME280;9379;52.134;11.576;2022-12-11T01:26:17;100553.84;;;2.07;77.07
18500;BME280;9379;52.134;11.576;2022-12-11T01:28:44;100551.75;;;2.13;75.72
18500;BME280;9379;52.134;11.576;2022-12-11T01:31:13;100554.22;;;2.16;75.98
18500;BME280;9379;52.134;11.576;2022-12-11T01:33:42;100557.31;;;2.07;76.23
18500;BME280;9379;52.134;11.576;2022-12-11T01:36:10;100541.28;;;2.13;76.56
18500;BME280;9379;52.134;11.576;2022-12-11T01:38:37;100562.50;;;1.75;77.08
18500;BME280;9379;52.134;11.576;2022-12-11T01:44:01;100552.16;;;1.39;77.81
18500;BME280;9379;52.134;11.576;2022-12-11T01:46:30;100557.28;;;1.75;78.09
18500;BME280;9379;52.134;11.576;2022-12-11T01:49:00;100563.47;;;1.57;77.00
18500;BME280;9379;52.134;11.576;2022-12-11T01:51:30;100557.41;;;1.39;77.53
18500;BME280;9379;52.134;11.576;2022-12-11T01:54:02;100555.88;;;1.86;77.77
18500;BME280;9379;52.134;11.576;2022-12-11T01:56:35;100541.63;;;1.74;77.32
18500;BME280;9379;52.134;11.576;2022-12-11T01:59:05;100516.47;;;1.54;77.42
18500;BME280;9379;52.134;11.576;2022-12-11T02:01:36;100553.56;;;1.29;77.51
18500;BME280;9379;52.134;11.576;2022-12-11T02:04:13;100571.41;;;1.21;78.59
18500;BME280;9379;52.134;11.576;2022-12-11T02:06:44;100563.72;;;1.86;78.20
18500;BME280;9379;52.134;11.576;2022-12-11T02:09:16;100555.91;;;1.84;77.62
18500;BME280;9379;52.134;11.576;2022-12-11T02:11:51;100566.66;;;2.13;76.67
18500;BME280;9379;52.134;11.576;2022-12-11T02:14:27;100543.69;;;1.52;77.64
18500;BME280;9379;52.134;11.576;2022-12-11T02:17:00;100548.28;;;1.97;77.54
18500;BME280;9379;52.134;11.576;2022-12-11T02:19:43;100576.84;;;1.86;76.32
18500;BME280;9379;52.134;11.576;2022-12-11T02:22:17;100571.63;;;2.01;77.05
18500;BME280;9379;52.134;11.576;2022-12-11T02:24:56;100562.91;;;2.01;76.21
18500;BME280;9379;52.134;11.576;2022-12-11T02:27:35;100537.38;;;2.04;75.81
18500;BME280;9379;52.134;11.576;2022-12-11T02:30:06;100538.13;;;2.07;75.71
18500;BME280;9379;52.134;11.576;2022-12-11T02:32:37;100554.28;;;1.99;76.24
18500;BME280;9379;52.134;11.576;2022-12-11T02:35:09;100550.38;;;1.90;76.25
18500;BME280;9379;52.134;11.576;2022-12-11T02:37:41;100568.06;;;2.18;77.13
18500;BME280;9379;52.134;11.576;2022-12-11T02:40:13;100546.59;;;1.63;78.78
18500;BME280;9379;52.134;11.576;2022-12-11T02:42:46;100549.06;;;2.15;76.74
18500;BME280;9379;52.134;11.576;2022-12-11T02:45:17;100562.16;;;1.99;77.42
18500;BME280;9379;52.134;11.576;2022-12-11T02:47:46;100553.91;;;2.22;76.81
18500;BME280;9379;52.134;11.576;2022-12-11T02:50:18;100545.84;;;2.10;76.74
18500;BME280;9379;52.134;11.576;2022-12-11T02:52:48;100525.69;;;1.94;76.55
18500;BME280;9379;52.134;11.576;2022-12-11T02:55:19;100556.78;;;1.85;77.65
18500;BME280;9379;52.134;11.576;2022-12-11T02:57:48;100547.88;;;1.71;77.87
18500;BME280;9379;52.134;11.576;2022-12-11T03:00:18;100544.13;;;1.60;77.62
18500;BME280;9379;52.134;11.576;2022-12-11T03:02:46;100550.94;;;1.80;77.09
18500;BME280;9379;52.134;11.576;2022-12-11T03:05:14;100544.97;;;1.93;76.53
18500;BME280;9379;52.134;11.576;2022-12-11T03:07:43;100547.91;;;1.87;76.60
18500;BME280;9379;52.134;11.576;2022-12-11T03:10:13;100558.84;;;1.45;76.31
18500;BME280;9379;52.134;11.576;2022-12-11T03:12:42;100554.06;;;1.36;76.74
18500;BME280;9379;52.134;11.576;2022-12-11T03:15:13;100557.00;;;1.47;77.17
18500;BME280;9379;52.134;11.576;2022-12-11T03:17:50;100508.94;;;1.48;78.05
18500;BME280;9379;52.134;11.576;2022-12-11T03:20:30;100556.91;;;1.66;76.40
18500;BME280;9379;52.134;11.576;2022-12-11T03:23:05;100540.06;;;1.87;77.58
18500;BME280;9379;52.134;11.576;2022-12-11T03:25:39;100534.84;;;2.03;75.58
18500;BME280;9379;52.134;11.576;2022-12-11T03:28:12;100555.03;;;1.68;75.50
18500;BME280;9379;52.134;11.576;2022-12-11T03:30:43;100559.47;;;1.83;75.90
18500;BME280;9379;52.134;11.576;2022-12-11T03:33:20;100534.25;;;1.98;75.98
18500;BME280;9379;52.134;11.576;2022-12-11T03:35:52;100532.16;;;1.71;75.50
18500;BME280;9379;52.134;11.576;2022-12-11T03:38:23;100531.72;;;1.63;76.59
18500;BME280;9379;52.134;11.576;2022-12-11T03:40:54;100524.59;;;1.32;76.80
18500;BME280;9379;52.134;11.576;2022-12-11T03:43:24;100526.53;;;1.62;76.32
18500;BME280;9379;52.134;11.576;2022-12-11T03:45:53;100528.00;;;2.00;75.91
18500;BME280;9379;52.134;11.576;2022-12-11T03:48:23;100540.75;;;1.73;76.46
18500;BME280;9379;52.134;11.576;2022-12-11T03:50:52;100543.38;;;1.23;78.00
18500;BME280;9379;52.134;11.576;2022-12-11T03:53:20;100535.38;;;1.77;77.48
18500;BME280;9379;52.134;11.576;2022-12-11T03:55:50;100536.53;;;2.04;75.14
18500;BME280;9379;52.134;11.576;2022-12-11T03:58:17;100542.97;;;2.30;74.71
18500;BME280;9379;52.134;11.576;2022-12-11T04:00:44;100528.31;;;1.94;74.17
18500;BME280;9379;52.134;11.576;2022-12-11T04:03:11;100539.41;;;1.99;74.05
18500;BME280;9379;52.134;11.576;2022-12-11T04:05:40;100535.38;;;2.10;73.39
18500;BME280;9379;52.134;11.576;2022-12-11T04:08:08;100523.63;;;1.84;74.19
18500;BME280;9379;52.134;11.576;2022-12-11T04:10:35;100525.94;;;2.05;73.99
18500;BME280;9379;52.134;11.576;2022-12-11T04:13:02;100501.25;;;1.45;74.88
18500;BME280;9379;52.134;11.576;2022-12-11T04:15:29;100517.47;;;1.85;74.87
18500;BME280;9379;52.134;11.576;2022-12-11T04:17:55;100519.59;;;1.78;75.33
18500;BME280;9379;52.134;11.576;2022-12-11T04:20:40;100545.50;;;2.00;75.59
18500;BME280;9379;52.134;11.576;2022-12-11T04:23:25;100552.06;;;1.58;77.15
18500;BME280;9379;52.134;11.576;2022-12-11T04:26:12;100543.28;;;1.92;76.63
18500;BME280;9379;52.134;11.576;2022-12-11T04:31:24;100527.53;;;1.77;74.91
18500;BME280;9379;52.134;11.576;2022-12-11T04:33:51;100546.34;;;2.00;75.36
18500;BME280;9379;52.134;11.576;2022-12-11T04:36:19;100543.88;;;1.97;74.96
18500;BME280;9379;52.134;11.576;2022-12-11T04:38:46;100543.47;;;1.72;74.75
18500;BME280;9379;52.134;11.576;2022-12-11T04:41:14;100536.22;;;1.77;75.91
18500;BME280;9379;52.134;11.576;2022-12-11T04:43:41;100536.78;;;1.66;75.59
18500;BME280;9379;52.134;11.576;2022-12-11T04:46:11;100537.63;;;1.67;76.02
18500;BME280;9379;52.134;11.576;2022-12-11T04:48:38;100541.69;;;1.39;76.62
18500;BME280;9379;52.134;11.576;2022-12-11T04:51:05;100547.69;;;1.41;77.21
18500;BME280;9379;52.134;11.576;2022-12-11T04:53:34;100545.59;;;1.48;76.80
18500;BME280;9379;52.134;11.576;2022-12-11T04:56:04;100539.50;;;1.48;77.55
18500;BME280;9379;52.134;11.576;2022-12-11T04:58:31;100514.06;;;1.16;77.15
18500;BME280;9379;52.134;11.576;2022-12-11T05:00:57;100518.34;;;1.52;77.27
18500;BME280;9379;52.134;11.576;2022-12-11T05:03:24;100501.13;;;1.64;77.50
18500;BME280;9379;52.134;11.576;2022-12-11T05:08:26;100498.63;;;1.78;76.63
18500;BME280;9379;52.134;11.576;2022-12-11T05:10:58;100490.38;;;1.86;76.42
18500;BME280;9379;52.134;11.576;2022-12-11T05:13:26;100480.47;;;1.25;77.40
18500;BME280;9379;52.134;11.576;2022-12-11T05:15:54;100478.50;;;0.95;78.96
18500;BME280;9379;52.134;11.576;2022-12-11T05:18:22;100491.66;;;1.11;78.83
18500;BME280;9379;52.134;11.576;2022-12-11T05:20:54;100476.25;;;1.22;78.73
18500;BME280;9379;52.134;11.576;2022-12-11T05:23:22;100488.69;;;1.52;77.04
18500;BME280;9379;52.134;11.576;2022-12-11T05:29:08;100489.03;;;1.11;77.89
18500;BME280;9379;52.134;11.576;2022-12-11T05:31:35;100486.66;;;1.06;78.50
18500;BME280;9379;52.134;11.576;2022-12-11T05:34:02;100484.19;;;1.03;79.46
18500;BME280;9379;52.134;11.576;2022-12-11T05:36:30;100484.25;;;1.02;79.08
18500;BME280;9379;52.134;11.576;2022-12-11T05:38:59;100477.72;;;0.76;79.05
18500;BME280;9379;52.134;11.576;2022-12-11T05:41:28;100476.59;;;0.99;78.90
18500;BME280;9379;52.134;11.576;2022-12-11T05:43:56;100474.56;;;1.04;79.11
18500;BME280;9379;52.134;11.576;2022-12-11T05:46:26;100480.50;;;0.90;78.38
18500;BME280;9379;52.134;11.576;2022-12-11T05:48:54;100484.91;;;0.72;79.15
18500;BME280;9379;52.134;11.576;2022-12-11T05:51:22;100480.38;;;1.43;78.61
18500;BME280;9379;52.134;11.576;2022-12-11T05:53:50;100477.63;;;1.29;79.50
18500;BME280;9379;52.134;11.576;2022-12-11T05:56:19;100479.59;;;1.08;78.24
18500;BME280;9379;52.134;11.576;2022-12-11T05:58:47;100475.44;;;1.55;76.68
18500;BME280;9379;52.134;11.576;2022-12-11T06:01:15;100470.94;;;1.57;78.18
18500;BME280;9379;52.134;11.576;2022-12-11T06:03:44;100461.22;;;1.59;75.67
18500;BME280;9379;52.134;11.576;2022-12-11T06:06:11;100465.03;;;1.03;76.23
18500;BME280;9379;52.134;11.576;2022-12-11T06:08:38;100458.13;;;1.35;75.82
18500;BME280;9379;52.134;11.576;2022-12-11T06:11:05;100469.28;;;1.38;76.18
18500;BME280;9379;52.134;11.576;2022-12-11T06:16:52;100488.63;;;1.36;76.11
18500;BME280;9379;52.134;11.576;2022-12-11T06:19:20;100462.81;;;0.78;76.15
18500;BME280;9379;52.134;11.576;2022-12-11T06:21:47;100483.31;;;1.37;75.69
18500;BME280;9379;52.134;11.576;2022-12-11T06:24:28;100452.34;;;1.61;74.59
18500;BME280;9379;52.134;11.576;2022-12-11T06:26:55;100477.22;;;1.37;75.08
18500;BME280;9379;52.134;11.576;2022-12-11T06:29:21;100464.28;;;0.83;74.97
18500;BME280;9379;52.134;11.576;2022-12-11T06:31:48;100473.41;;;0.92;75.58
18500;BME280;9379;52.134;11.576;2022-12-11T06:34:15;100474.03;;;0.80;76.62
18500;BME280;9379;52.134;11.576;2022-12-11T06:36:43;100463.00;;;1.25;75.58
18500;BME280;9379;52.134;11.576;2022-12-11T06:39:10;100470.75;;;1.27;75.61
18500;BME280;9379;52.134;11.576;2022-12-11T06:41:37;100480.09;;;1.32;75.59
18500;BME280;9379;52.134;11.576;2022-12-11T06:44:03;100471.22;;;1.68;75.76
18500;BME280;9379;52.134;11.576;2022-12-11T06:46:30;100470.28;;;1.85;75.12
18500;BME280;9379;52.134;11.576;2022-12-11T06:48:57;100466.69;;;1.87;74.41
18500;BME280;9379;52.134;11.576;2022-12-11T06:51:24;100477.41;;;1.67;74.22
18500;BME280;9379;52.134;11.576;2022-12-11T06:54:11;100473.63;;;1.88;74.17
18500;BME280;9379;52.134;11.576;2022-12-11T06:56:38;100473.56;;;2.21;73.69
18500;BME280;9379;52.134;11.576;2022-12-11T06:59:04;100482.84;;;2.27;75.25
18500;BME280;9379;52.134;11.576;2022-12-11T07:01:32;100483.50;;;2.15;74.57
18500;BME280;9379;52.134;11.576;2022-12-11T07:03:59;100482.94;;;2.10;74.20
18500;BME280;9379;52.134;11.576;2022-12-11T07:06:26;100453.25;;;1.93;74.15
18500;BME280;9379;52.134;11.576;2022-12-11T07:08:55;100449.94;;;1.74;73.93
18500;BME280;9379;52.134;11.576;2022-12-11T07:11:23;100477.59;;;2.11;74.04
18500;BME280;9379;52.134;11.576;2022-12-11T07:19:46;100491.63;;;1.94;74.82
18500;BME280;9379;52.134;11.576;2022-12-11T07:22:13;100503.66;;;2.14;75.04
18500;BME280;9379;52.134;11.576;2022-12-11T07:24:42;100490.03;;;1.59;76.72
18500;BME280;9379;52.134;11.576;2022-12-11T07:27:09;100499.34;;;1.31;76.02
18500;BME280;9379;52.134;11.576;2022-12-11T07:29:36;100503.84;;;1.62;77.06
18500;BME280;9379;52.134;11.576;2022-12-11T07:32:03;100514.03;;;2.00;76.53
18500;BME280;9379;52.134;11.576;2022-12-11T07:34:31;100507.38;;;2.10;76.28
18500;BME280;9379;52.134;11.576;2022-12-11T07:36:58;100506.13;;;1.84;75.57
18500;BME280;9379;52.134;11.576;2022-12-11T07:39:25;100501.69;;;2.02;74.78
18500;BME280;9379;52.134;11.576;2022-12-11T07:41:53;100490.94;;;1.91;75.92
18500;BME280;9379;52.134;11.576;2022-12-11T07:44:20;100511.34;;;2.01;75.40
18500;BME280;9379;52.134;11.576;2022-12-11T07:46:47;100510.13;;;2.07;75.30
18500;BME280;9379;52.134;11.576;2022-12-11T07:49:14;100499.34;;;1.97;75.22
18500;BME280;9379;52.134;11.576;2022-12-11T07:51:41;100520.25;;;1.82;75.05
18500;BME280;9379;52.134;11.576;2022-12-11T07:54:12;100515.59;;;1.71;75.24
18500;BME280;9379;52.134;11.576;2022-12-11T07:56:41;100501.81;;;1.83;74.68
18500;BME280;9379;52.134;11.576;2022-12-11T07:59:10;100506.56;;;1.77;76.54
18500;BME280;9379;52.134;11.576;2022-12-11T08:01:38;100516.13;;;1.93;74.95
18500;BME280;9379;52.134;11.576;2022-12-11T08:04:11;100512.88;;;1.72;76.20
18500;BME280;9379;52.134;11.576;2022-12-11T08:06:40;100524.34;;;1.54;75.90
18500;BME280;9379;52.134;11.576;2022-12-11T08:09:10;100519.69;;;2.08;75.11
18500;BME280;9379;52.134;11.576;2022-12-11T08:11:37;100508.38;;;2.08;74.60
18500;BME280;9379;52.134;11.576;2022-12-11T08:14:04;100514.72;;;2.03;74.85
18500;BME280;9379;52.134;11.576;2022-12-11T08:16:34;100508.38;;;2.08;76.27
18500;BME280;9379;52.134;11.576;2022-12-11T08:19:03;100491.22;;;2.02;75.78
18500;BME280;9379;52.134;11.576;2022-12-11T08:21:30;100495.00;;;1.96;74.49
18500;BME280;9379;52.134;11.576;2022-12-11T08:23:57;100504.13;;;2.05;74.97
18500;BME280;9379;52.134;11.576;2022-12-11T08:26:26;100500.78;;;1.70;74.86
18500;BME280;9379;52.134;11.576;2022-12-11T08:28:53;100506.13;;;1.84;75.73
18500;BME280;9379;52.134;11.576;2022-12-11T08:31:20;100513.50;;;1.93;76.03
18500;BME280;9379;52.134;11.576;2022-12-11T08:33:49;100498.13;;;1.87;75.25
18500;BME280;9379;52.134;11.576;2022-12-11T08:36:18;100496.34;;;1.88;74.96
18500;BME280;9379;52.134;11.576;2022-12-11T08:38:47;100509.88;;;1.96;74.77
18500;BME280;9379;52.134;11.576;2022-12-11T08:41:15;100494.94;;;1.32;75.25
18500;BME280;9379;52.134;11.576;2022-12-11T08:43:43;100512.75;;;2.07;75.73
18500;BME280;9379;52.134;11.576;2022-12-11T08:46:11;100520.69;;;1.90;75.08
18500;BME280;9379;52.134;11.576;2022-12-11T08:48:39;100517.69;;;1.97;74.68
18500;BME280;9379;52.134;11.576;2022-12-11T08:51:11;100514.03;;;2.00;74.92
18500;BME280;9379;52.134;11.576;2022-12-11T08:53:38;100499.66;;;1.58;74.85
18500;BME280;9379;52.134;11.576;2022-12-11T08:56:10;100536.50;;;1.55;76.58
18500;BME280;9379;52.134;11.576;2022-12-11T08:58:41;100526.59;;;1.78;75.87
18500;BME280;9379;52.134;11.576;2022-12-11T09:01:10;100541.03;;;1.69;77.78
18500;BME280;9379;52.134;11.576;2022-12-11T09:03:38;100527.94;;;1.85;76.69
18500;BME280;9379;52.134;11.576;2022-12-11T09:06:08;100522.28;;;1.43;76.92
18500;BME280;9379;52.134;11.576;2022-12-11T09:08:36;100512.72;;;1.42;77.14
18500;BME280;9379;52.134;11.576;2022-12-11T09:11:04;100526.03;;;1.55;76.31
18500;BME280;9379;52.134;11.576;2022-12-11T09:13:31;100529.56;;;1.54;76.52
18500;BME280;9379;52.134;11.576;2022-12-11T09:15:58;100520.59;;;1.42;76.45
18500;BME280;9379;52.134;11.576;2022-12-11T09:18:25;100515.72;;;1.52;77.50
18500;BME280;9379;52.134;11.576;2022-12-11T09:21:00;100529.31;;;1.59;76.77
18500;BME280;9379;52.134;11.576;2022-12-11T09:23:28;100531.22;;;1.72;75.98
18500;BME280;9379;52.134;11.576;2022-12-11T09:25:55;100532.69;;;1.94;76.00
18500;BME280;9379;52.134;11.576;2022-12-11T09:28:22;100508.63;;;1.37;76.46
18500;BME280;9379;52.134;11.576;2022-12-11T09:30:50;100511.56;;;1.48;77.56
18500;BME280;9379;52.134;11.576;2022-12-11T09:33:17;100519.50;;;1.46;77.62
18500;BME280;9379;52.134;11.576;2022-12-11T09:35:44;100521.63;;;1.56;77.44
18500;BME280;9379;52.134;11.576;2022-12-11T09:38:11;100524.06;;;1.26;77.62
18500;BME280;9379;52.134;11.576;2022-12-11T09:40:42;100518.66;;;1.79;77.64
18500;BME280;9379;52.134;11.576;2022-12-11T09:43:17;100524.53;;;1.67;78.44
18500;BME280;9379;52.134;11.576;2022-12-11T09:45:48;100519.06;;;1.21;78.79
18500;BME280;9379;52.134;11.576;2022-12-11T09:48:20;100508.84;;;1.50;77.97
18500;BME280;9379;52.134;11.576;2022-12-11T09:50:50;100506.88;;;1.37;77.82
18500;BME280;9379;52.134;11.576;2022-12-11T09:53:25;100501.47;;;1.73;76.77
18500;BME280;9379;52.134;11.576;2022-12-11T09:55:57;100502.97;;;1.11;77.90
18500;BME280;9379;52.134;11.576;2022-12-11T09:58:29;100496.72;;;1.31;77.54
18500;BME280;9379;52.134;11.576;2022-12-11T10:01:04;100499.47;;;1.45;78.13
18500;BME280;9379;52.134;11.576;2022-12-11T10:06:38;100505.81;;;1.24;78.08
18500;BME280;9379;52.134;11.576;2022-12-11T10:09:13;100507.53;;;1.08;77.70
18500;BME280;9379;52.134;11.576;2022-12-11T10:11:57;100501.78;;;1.34;77.63
18500;BME280;9379;52.134;11.576;2022-12-11T10:14:34;100505.75;;;1.59;76.35
18500;BME280;9379;52.134;11.576;2022-12-11T10:17:10;100486.75;;;1.71;76.74
18500;BME280;9379;52.134;11.576;2022-12-11T10:19:39;100495.75;;;1.83;76.03
18500;BME280;9379;52.134;11.576;2022-12-11T10:22:13;100490.28;;;1.54;77.15
18500;BME280;9379;52.134;11.576;2022-12-11T10:24:48;100487.78;;;1.68;76.71
18500;BME280;9379;52.134;11.576;2022-12-11T10:27:23;100488.19;;;2.10;75.76
18500;BME280;9379;52.134;11.576;2022-12-11T10:29:54;100473.94;;;1.82;75.92
18500;BME280;9379;52.134;11.576;2022-12-11T10:32:32;100484.47;;;1.32;77.19
18500;BME280;9379;52.134;11.576;2022-12-11T10:35:04;100485.81;;;1.56;77.48
18500;BME280;9379;52.134;11.576;2022-12-11T10:37:32;100472.16;;;1.83;77.28
18500;BME280;9379;52.134;11.576;2022-12-11T10:39:58;100485.00;;;1.38;77.41
18500;BME280;9379;52.134;11.576;2022-12-11T10:42:27;100471.13;;;1.54;77.13
18500;BME280;9379;52.134;11.576;2022-12-11T10:44:55;100476.09;;;1.58;75.67
18500;BME280;9379;52.134;11.576;2022-12-11T10:47:23;100472.41;;;1.62;76.81
18500;BME280;9379;52.134;11.576;2022-12-11T10:49:52;100479.34;;;1.13;77.83
18500;BME280;9379;52.134;11.576;2022-12-11T10:52:22;100461.22;;;1.43;78.79
18500;BME280;9379;52.134;11.576;2022-12-11T10:54:55;100479.03;;;1.19;77.74
18500;BME280;9379;52.134;11.576;2022-12-11T10:57:31;100476.47;;;1.35;78.32
18500;BME280;9379;52.134;11.576;2022-12-11T11:00:00;100470.84;;;1.42;77.96
18500;BME280;9379;52.134;11.576;2022-12-11T11:02:30;100454.69;;;1.50;77.40
18500;BME280;9379;52.134;11.576;2022-12-11T11:04:59;100459.81;;;1.85;76.16
18500;BME280;9379;52.134;11.576;2022-12-11T11:07:28;100456.03;;;2.06;75.89
18500;BME280;9379;52.134;11.576;2022-12-11T11:10:22;100419.22;;;1.44;75.90
18500;BME280;9379;52.134;11.576;2022-12-11T11:13:00;100422.66;;;2.10;75.10
18500;BME280;9379;52.134;11.576;2022-12-11T11:15:37;100445.88;;;1.84;74.93
18500;BME280;9379;52.134;11.576;2022-12-11T11:18:11;100430.56;;;2.08;75.20
18500;BME280;9379;52.134;11.576;2022-12-11T11:20:43;100434.06;;;1.93;75.98
18500;BME280;9379;52.134;11.576;2022-12-11T11:23:14;100449.63;;;2.12;74.77
18500;BME280;9379;52.134;11.576;2022-12-11T11:25:48;100430.41;;;2.11;75.21
18500;BME280;9379;52.134;11.576;2022-12-11T11:28:23;100414.53;;;1.98;74.46
18500;BME280;9379;52.134;11.576;2022-12-11T11:31:00;100400.13;;;2.05;74.25
18500;BME280;9379;52.134;11.576;2022-12-11T11:33:29;100416.84;;;2.34;74.45
18500;BME280;9379;52.134;11.576;2022-12-11T11:35:59;100420.41;;;2.63;74.58
18500;BME280;9379;52.134;11.576;2022-12-11T11:38:31;100395.56;;;1.62;74.36
18500;BME280;9379;52.134;11.576;2022-12-11T11:41:09;100407.91;;;2.23;74.08
18500;BME280;9379;52.134;11.576;2022-12-11T11:43:43;100426.13;;;2.40;74.22
18500;BME280;9379;52.134;11.576;2022-12-11T11:46:15;100400.00;;;2.09;74.78
18500;BME280;9379;52.134;11.576;2022-12-11T11:48:51;100418.41;;;2.23;74.43
18500;BME280;9379;52.134;11.576;2022-12-11T11:51:22;100421.44;;;2.15;74.73
18500;BME280;9379;52.134;11.576;2022-12-11T11:53:52;100435.81;;;2.24;75.64
18500;BME280;9379;52.134;11.576;2022-12-11T11:56:21;100412.22;;;2.24;74.87
18500;BME280;9379;52.134;11.576;2022-12-11T11:58:58;100404.41;;;2.38;73.88
18500;BME280;9379;52.134;11.576;2022-12-11T12:01:41;100393.50;;;2.30;74.04
18500;BME280;9379;52.134;11.576;2022-12-11T12:04:10;100403.47;;;2.09;75.20
18500;BME280;9379;52.134;11.576;2022-12-11T12:07:00;100415.00;;;2.37;75.43
18500;BME280;9379;52.134;11.576;2022-12-11T12:09:41;100392.75;;;2.28;74.15
18500;BME280;9379;52.134;11.576;2022-12-11T12:12:15;100397.81;;;2.31;74.08
18500;BME280;9379;52.134;11.576;2022-12-11T12:14:57;100389.94;;;2.31;74.74
18500;BME280;9379;52.134;11.576;2022-12-11T12:17:33;100389.44;;;1.63;75.96
18500;BME280;9379;52.134;11.576;2022-12-11T12:20:12;100405.41;;;1.74;76.51
18500;BME280;9379;52.134;11.576;2022-12-11T12:22:52;100406.47;;;2.33;75.79
18500;BME280;9379;52.134;11.576;2022-12-11T12:25:25;100401.81;;;2.52;74.75
18500;BME280;9379;52.134;11.576;2022-12-11T12:27:59;100394.56;;;1.96;75.24
18500;BME280;9379;52.134;11.576;2022-12-11T12:30:39;100398.69;;;2.16;75.41
18500;BME280;9379;52.134;11.576;2022-12-11T12:33:23;100409.03;;;2.03;76.91
18500;BME280;9379;52.134;11.576;2022-12-11T12:36:15;100400.66;;;2.12;76.32
18500;BME280;9379;52.134;11.576;2022-12-11T12:48:15;100409.56;;;2.40;74.41
18500;BME280;9379;52.134;11.576;2022-12-11T12:50:45;100402.16;;;2.16;74.59
18500;BME280;9379;52.134;11.576;2022-12-11T12:53:17;100402.03;;;1.88;75.78
18500;BME280;9379;52.134;11.576;2022-12-11T12:55:45;100396.91;;;2.16;75.35
18500;BME280;9379;52.134;11.576;2022-12-11T12:58:27;100398.88;;;2.43;74.67
18500;BME280;9379;52.134;11.576;2022-12-11T13:01:06;100394.16;;;2.49;74.74
18500;BME280;9379;52.134;11.576;2022-12-11T13:03:47;100393.81;;;2.70;74.89
18500;BME280;9379;52.134;11.576;2022-12-11T13:06:15;100386.00;;;2.24;74.93
18500;BME280;9379;52.134;11.576;2022-12-11T13:08:53;100393.97;;;2.07;75.15
18500;BME280;9379;52.134;11.576;2022-12-11T13:11:20;100393.41;;;2.31;74.60
18500;BME280;9379;52.134;11.576;2022-12-11T13:14:03;100383.72;;;2.33;75.22
18500;BME280;9379;52.134;11.576;2022-12-11T13:16:35;100391.00;;;2.58;75.53
18500;BME280;9379;52.134;11.576;2022-12-11T13:19:15;100391.19;;;2.40;74.53
18500;BME280;9379;52.134;11.576;2022-12-11T13:21:54;100381.22;;;2.46;74.88
18500;BME280;9379;52.134;11.576;2022-12-11T13:24:25;100379.28;;;2.64;74.73
18500;BME280;9379;52.134;11.576;2022-12-11T13:26:52;100381.91;;;2.64;74.64
18500;BME280;9379;52.134;11.576;2022-12-11T13:29:30;100388.16;;;2.47;74.02
18500;BME280;9379;52.134;11.576;2022-12-11T13:31:59;100385.69;;;2.74;74.14
18500;BME280;9379;52.134;11.576;2022-12-11T13:34:31;100369.28;;;2.11;75.31
18500;BME280;9379;52.134;11.576;2022-12-11T13:36:59;100384.94;;;2.42;75.76
18500;BME280;9379;52.134;11.576;2022-12-11T13:39:29;100385.91;;;2.25;74.70
18500;BME280;9379;52.134;11.576;2022-12-11T13:42:00;100387.31;;;2.01;75.94
18500;BME280;9379;52.134;11.576;2022-12-11T13:44:30;100370.72;;;2.46;75.37
18500;BME280;9379;52.134;11.576;2022-12-11T13:46:59;100380.63;;;2.41;74.95
18500;BME280;9379;52.134;11.576;2022-12-11T13:49:33;100386.22;;;2.35;75.31
18500;BME280;9379;52.134;11.576;2022-12-11T13:52:02;100397.25;;;2.26;76.62
18500;BME280;9379;52.134;11.576;2022-12-11T13:54:30;100389.94;;;2.01;76.36
18500;BME280;9379;52.134;11.576;2022-12-11T13:57:00;100386.53;;;1.83;76.28